createdAt,value
2019-03-27T00:01:08.166Z,6.20
2019-03-27T00:03:36.121Z,6.07
2019-03-27T00:06:04.532Z,5.13
2019-03-27T00:08:32.458Z,5.30
2019-03-27T00:11:00.532Z,4.67
2019-03-27T00:13:28.620Z,4.80
2019-03-27T00:15:56.653Z,5.00
2019-03-27T00:18:24.602Z,4.93
2019-03-27T00:20:52.829Z,5.07
2019-03-27T00:23:20.881Z,4.83
2019-03-27T00:25:48.813Z,5.40
2019-03-27T00:28:18.243Z,5.60
2019-03-27T00:30:47.037Z,5.53
2019-03-27T00:33:14.973Z,5.63
2019-03-27T00:35:43.077Z,5.77
2019-03-27T00:38:11.018Z,5.40
2019-03-27T00:40:39.058Z,6.10
2019-03-27T00:43:07.197Z,6.70
2019-03-27T00:45:35.241Z,6.67
2019-03-27T00:48:03.281Z,6.33
2019-03-27T00:50:31.267Z,6.90
2019-03-27T00:52:59.293Z,7.57
2019-03-27T00:55:27.238Z,7.37
2019-03-27T00:57:55.450Z,7.00
2019-03-27T01:00:26.467Z,6.70
2019-03-27T01:02:54.605Z,8.03
2019-03-27T01:05:23.050Z,7.97
2019-03-27T01:07:51.101Z,7.93
2019-03-27T01:10:19.021Z,8.23
2019-03-27T01:12:47.026Z,8.60
2019-03-27T01:15:15.074Z,7.63
2019-03-27T01:17:43.019Z,8.30
2019-03-27T01:20:12.203Z,7.50
2019-03-27T01:22:40.133Z,7.33
2019-03-27T01:25:08.304Z,8.10
2019-03-27T01:27:36.455Z,8.80
2019-03-27T01:30:05.094Z,7.90
2019-03-27T01:32:33.541Z,8.97
2019-03-27T01:35:01.533Z,7.40
2019-03-27T01:37:29.477Z,7.97
2019-03-27T01:39:57.509Z,7.80
2019-03-27T01:42:25.517Z,8.23
2019-03-27T01:44:53.562Z,9.37
2019-03-27T01:47:21.619Z,8.97
2019-03-27T01:49:49.765Z,7.87
2019-03-27T01:52:17.706Z,8.13
2019-03-27T01:54:45.641Z,7.80
2019-03-27T01:57:13.645Z,8.67
2019-03-27T01:59:41.656Z,8.03
2019-03-27T02:02:09.520Z,8.07
2019-03-27T02:04:38.843Z,7.27
2019-03-27T02:07:06.885Z,7.53
2019-03-27T02:09:34.821Z,8.07
2019-03-27T02:12:03.056Z,8.00
2019-03-27T02:14:31.099Z,8.30
2019-03-27T02:16:59.138Z,8.23
2019-03-27T02:19:27.293Z,7.87
2019-03-27T02:21:55.239Z,8.10
2019-03-27T02:24:23.173Z,8.17
2019-03-27T02:26:51.309Z,9.30
2019-03-27T02:29:19.266Z,8.30
2019-03-27T02:31:47.301Z,9.57
2019-03-27T02:34:16.385Z,9.07
2019-03-27T02:36:44.557Z,8.90
2019-03-27T02:39:12.507Z,10.30
2019-03-27T02:41:40.795Z,10.27
2019-03-27T02:44:08.733Z,8.50
2019-03-27T02:46:36.778Z,8.90
2019-03-27T02:49:04.755Z,9.70
2019-03-27T02:51:32.707Z,9.37
2019-03-27T02:54:00.668Z,9.17
2019-03-27T02:56:28.665Z,9.27
2019-03-27T02:58:56.590Z,9.83
2019-03-27T03:01:24.539Z,9.40
2019-03-27T03:03:52.607Z,9.60
2019-03-27T03:06:20.541Z,9.77
2019-03-27T03:08:48.578Z,10.27
2019-03-27T03:11:17.784Z,9.60
2019-03-27T03:13:47.525Z,9.43
2019-03-27T03:16:15.473Z,10.43
2019-03-27T03:18:43.557Z,10.37
2019-03-27T03:21:11.531Z,9.83
2019-03-27T03:23:39.567Z,10.20
2019-03-27T03:26:07.708Z,9.00
2019-03-27T03:28:35.750Z,9.77
2019-03-27T03:31:03.816Z,8.90
2019-03-27T03:33:31.797Z,10.70
2019-03-27T03:35:59.886Z,9.73
2019-03-27T03:38:28.299Z,9.80
2019-03-27T03:40:56.666Z,10.30
2019-03-27T03:43:24.649Z,10.90
2019-03-27T03:45:52.606Z,10.03
2019-03-27T03:48:21.656Z,10.20
2019-03-27T03:50:51.087Z,9.87
2019-03-27T03:53:19.504Z,11.33
2019-03-27T03:55:48.073Z,10.23
2019-03-27T03:58:16.588Z,11.10
2019-03-27T04:00:44.958Z,10.80
2019-03-27T04:03:12.976Z,11.23
2019-03-27T04:05:40.914Z,10.87
2019-03-27T04:08:10.719Z,11.10
2019-03-27T04:10:38.793Z,10.97
2019-03-27T04:13:06.718Z,12.10
2019-03-27T04:15:34.702Z,11.07
2019-03-27T04:18:02.750Z,11.50
2019-03-27T04:20:30.776Z,12.30
2019-03-27T04:22:58.779Z,11.17
2019-03-27T04:25:26.718Z,12.20
2019-03-27T04:27:54.774Z,12.03
2019-03-27T04:30:23.098Z,11.20
2019-03-27T04:32:51.051Z,9.70
2019-03-27T04:35:20.208Z,10.30
2019-03-27T04:37:49.385Z,10.47
2019-03-27T04:40:17.696Z,10.17
2019-03-27T04:42:45.920Z,10.93
2019-03-27T04:45:15.992Z,11.30
2019-03-27T04:47:43.917Z,12.67
2019-03-27T04:50:11.965Z,13.67
2019-03-27T04:52:40.189Z,11.40
2019-03-27T04:55:08.374Z,12.00
2019-03-27T04:57:36.322Z,11.37
2019-03-27T05:00:05.362Z,10.70
2019-03-27T05:02:33.306Z,10.23
2019-03-27T05:05:02.353Z,10.93
2019-03-27T05:07:30.478Z,11.93
2019-03-27T05:09:59.608Z,11.20
2019-03-27T05:12:27.560Z,10.87
2019-03-27T05:14:56.065Z,10.53
2019-03-27T05:17:25.133Z,11.70
2019-03-27T05:19:53.181Z,11.13
2019-03-27T05:22:21.314Z,9.27
2019-03-27T05:24:49.261Z,12.17
2019-03-27T05:27:19.000Z,11.20
2019-03-27T05:29:46.990Z,10.67
2019-03-27T05:32:14.916Z,10.13
2019-03-27T05:34:43.059Z,9.73
2019-03-27T05:37:11.058Z,10.03
2019-03-27T05:39:40.739Z,9.97
2019-03-27T05:42:09.026Z,9.27
2019-03-27T05:44:37.016Z,12.00
2019-03-27T05:47:05.075Z,11.30
2019-03-27T05:49:33.005Z,13.13
2019-03-27T05:52:01.096Z,13.40
2019-03-27T05:54:29.021Z,12.67
2019-03-27T05:56:57.090Z,12.10
2019-03-27T05:59:25.165Z,12.80
2019-03-27T06:01:53.117Z,15.00
2019-03-27T06:04:21.061Z,11.23
2019-03-27T06:06:49.050Z,13.03
2019-03-27T06:09:17.003Z,14.27
2019-03-27T06:11:45.056Z,12.60
2019-03-27T06:14:13.349Z,12.77
2019-03-27T06:16:41.304Z,14.90
2019-03-27T06:19:09.448Z,13.90
2019-03-27T06:21:38.621Z,13.20
2019-03-27T06:24:06.666Z,14.17
2019-03-27T06:26:34.714Z,13.77
2019-03-27T06:29:02.614Z,13.30
2019-03-27T06:31:30.656Z,20.13
2019-03-27T06:33:58.634Z,26.87
2019-03-27T06:36:26.771Z,14.10
2019-03-27T06:38:54.799Z,17.70
2019-03-27T06:41:23.397Z,14.13
2019-03-27T06:43:51.393Z,12.83
2019-03-27T06:46:19.333Z,11.83
2019-03-27T06:48:47.269Z,15.20
2019-03-27T06:51:15.549Z,12.57
2019-03-27T06:53:43.493Z,15.60
2019-03-27T06:56:11.486Z,15.27
2019-03-27T06:58:53.358Z,12.90
2019-03-27T07:01:09.219Z,11.87
2019-03-27T07:03:37.164Z,12.97
2019-03-27T07:06:05.141Z,12.27
2019-03-27T07:08:33.088Z,12.53
2019-03-27T07:11:02.829Z,15.33
2019-03-27T07:13:30.805Z,13.07
2019-03-27T07:15:58.742Z,15.37
2019-03-27T07:18:39.207Z,14.90
2019-03-27T07:20:56.754Z,13.67
2019-03-27T07:23:24.698Z,15.07
2019-03-27T07:25:52.846Z,13.80
2019-03-27T07:28:21.281Z,11.63
2019-03-27T07:30:50.542Z,13.73
2019-03-27T07:33:18.579Z,16.00
2019-03-27T07:35:47.038Z,15.97
2019-03-27T07:38:15.145Z,14.63
2019-03-27T07:40:43.197Z,17.10
2019-03-27T07:43:11.262Z,16.33
2019-03-27T07:45:41.014Z,15.17
2019-03-27T07:48:08.956Z,15.37
2019-03-27T07:50:37.140Z,13.20
2019-03-27T07:53:05.088Z,13.93
2019-03-27T07:55:33.235Z,13.80
2019-03-27T07:58:01.370Z,12.70
2019-03-27T08:00:29.523Z,13.23
2019-03-27T08:02:57.554Z,15.80
2019-03-27T08:05:25.534Z,15.20
2019-03-27T08:07:53.487Z,13.67
2019-03-27T08:10:21.520Z,14.60
2019-03-27T08:12:49.598Z,16.97
2019-03-27T08:15:17.733Z,16.70
2019-03-27T08:17:45.685Z,13.03
2019-03-27T08:20:14.184Z,16.03
2019-03-27T08:22:42.123Z,16.87
2019-03-27T08:25:10.573Z,16.70
2019-03-27T08:27:39.101Z,12.50
2019-03-27T08:30:10.053Z,15.77
2019-03-27T08:32:38.161Z,15.30
2019-03-27T08:35:06.886Z,15.87
2019-03-27T08:37:34.925Z,18.50
2019-03-27T08:40:03.440Z,16.20
2019-03-27T08:42:32.384Z,14.27
2019-03-27T08:45:00.387Z,16.10
2019-03-27T08:47:28.402Z,14.77
2019-03-27T08:49:57.086Z,15.57
2019-03-27T08:52:26.218Z,14.93
2019-03-27T08:54:54.485Z,15.87
2019-03-27T08:57:23.530Z,22.00
2019-03-27T08:59:51.488Z,18.23
2019-03-27T09:02:19.646Z,16.90
2019-03-27T09:04:47.591Z,15.47
2019-03-27T09:07:15.531Z,14.80
2019-03-27T09:09:43.670Z,15.63
2019-03-27T09:12:11.616Z,13.60
2019-03-27T09:14:39.664Z,11.60
2019-03-27T09:17:07.664Z,11.93
2019-03-27T09:19:36.407Z,14.17
2019-03-27T09:22:04.450Z,14.73
2019-03-27T09:24:34.235Z,12.97
2019-03-27T09:27:02.373Z,12.30
2019-03-27T09:29:30.316Z,12.73
2019-03-27T09:32:00.442Z,13.30
2019-03-27T09:34:28.396Z,13.77
2019-03-27T09:36:56.343Z,14.77
2019-03-27T09:39:24.316Z,13.33
2019-03-27T09:41:52.510Z,14.57
2019-03-27T09:44:20.456Z,14.90
2019-03-27T09:46:48.599Z,14.93
2019-03-27T09:49:16.549Z,14.70
2019-03-27T09:51:44.586Z,13.43
2019-03-27T09:54:12.599Z,12.87
2019-03-27T09:56:40.837Z,12.80
2019-03-27T09:59:08.978Z,11.80
2019-03-27T10:01:38.869Z,15.23
2019-03-27T10:04:06.831Z,14.23
2019-03-27T10:06:34.890Z,14.10
2019-03-27T10:09:03.897Z,14.40
2019-03-27T10:11:31.926Z,15.23
2019-03-27T10:13:59.888Z,13.90
2019-03-27T10:16:27.958Z,15.43
2019-03-27T10:18:56.005Z,13.17
2019-03-27T10:21:24.153Z,12.57
2019-03-27T10:23:52.120Z,15.07
2019-03-27T10:26:20.149Z,15.03
2019-03-27T10:28:48.189Z,15.80
2019-03-27T10:31:16.637Z,14.70
2019-03-27T10:33:44.571Z,13.47
2019-03-27T10:36:14.309Z,15.00
2019-03-27T10:38:42.412Z,14.50
2019-03-27T10:41:10.490Z,14.50
2019-03-27T10:43:38.930Z,15.83
2019-03-27T10:46:07.141Z,13.67
2019-03-27T10:48:35.097Z,15.37
2019-03-27T10:51:03.133Z,15.50
2019-03-27T10:53:31.266Z,15.90
2019-03-27T10:55:59.219Z,17.77
2019-03-27T10:58:27.244Z,16.30
2019-03-27T11:00:55.365Z,18.90
2019-03-27T11:03:23.418Z,20.77
2019-03-27T11:05:51.506Z,16.97
2019-03-27T11:08:19.477Z,17.20
2019-03-27T11:10:47.424Z,18.30
2019-03-27T11:13:15.371Z,19.57
2019-03-27T11:15:43.544Z,17.10
2019-03-27T11:18:11.498Z,20.33
2019-03-27T11:20:39.536Z,20.00
2019-03-27T11:23:07.773Z,17.27
2019-03-27T11:25:35.709Z,17.20
2019-03-27T11:28:03.874Z,19.67
2019-03-27T11:30:39.111Z,19.27
2019-03-27T11:33:07.617Z,17.10
2019-03-27T11:35:35.566Z,15.50
2019-03-27T11:38:03.906Z,16.03
2019-03-27T11:40:32.090Z,17.87
2019-03-27T11:43:00.436Z,18.37
2019-03-27T11:45:28.561Z,19.73
2019-03-27T11:47:56.490Z,17.70
2019-03-27T11:50:24.547Z,17.47
2019-03-27T11:52:52.629Z,15.80
2019-03-27T11:55:20.688Z,15.83
2019-03-27T11:57:48.616Z,17.10
2019-03-27T12:00:16.690Z,15.13
2019-03-27T12:02:46.530Z,15.10
2019-03-27T12:05:14.469Z,15.20
2019-03-27T12:07:44.263Z,15.07
2019-03-27T12:10:12.528Z,15.37
2019-03-27T12:12:40.479Z,12.07
2019-03-27T12:15:09.445Z,13.63
2019-03-27T12:17:37.485Z,11.37
2019-03-27T12:20:06.408Z,12.67
2019-03-27T12:22:34.589Z,12.70
2019-03-27T12:25:02.733Z,11.30
2019-03-27T12:27:31.885Z,11.70
2019-03-27T12:30:00.058Z,11.20
2019-03-27T12:32:28.015Z,10.90
2019-03-27T12:34:56.049Z,11.90
2019-03-27T12:37:24.125Z,10.93
2019-03-27T12:39:52.166Z,12.23
2019-03-27T12:42:21.432Z,11.60
2019-03-27T12:44:49.922Z,11.87
2019-03-27T12:47:17.958Z,11.80
2019-03-27T12:49:47.944Z,12.10
2019-03-27T12:52:15.909Z,12.17
2019-03-27T12:54:43.968Z,11.50
2019-03-27T12:57:11.997Z,12.20
2019-03-27T12:59:39.985Z,11.60
2019-03-27T13:02:08.022Z,11.43
2019-03-27T13:04:35.957Z,10.20
2019-03-27T13:07:03.947Z,11.67
2019-03-27T13:09:31.900Z,11.93
2019-03-27T13:12:00.112Z,13.13
2019-03-27T13:14:28.122Z,11.37
2019-03-27T13:16:56.070Z,10.90
2019-03-27T13:19:24.035Z,9.90
2019-03-27T13:21:52.214Z,10.63
2019-03-27T13:24:20.266Z,11.87
2019-03-27T13:26:48.210Z,9.70
2019-03-27T13:29:16.445Z,9.97
2019-03-27T13:31:44.390Z,9.00
2019-03-27T13:34:12.429Z,9.93
2019-03-27T13:36:45.010Z,8.83
2019-03-27T13:39:13.043Z,9.30
2019-03-27T13:41:41.349Z,10.60
2019-03-27T13:44:11.159Z,10.90
2019-03-27T13:46:39.128Z,9.03
2019-03-27T13:49:08.260Z,8.20
2019-03-27T13:51:40.867Z,8.90
2019-03-27T13:54:07.943Z,9.87
2019-03-27T13:56:35.914Z,8.93
2019-03-27T13:59:04.211Z,11.10
2019-03-27T14:01:32.166Z,10.30
2019-03-27T14:04:00.219Z,11.13
2019-03-27T14:06:28.319Z,10.20
2019-03-27T14:08:56.372Z,11.37
2019-03-27T14:11:24.434Z,10.47
2019-03-27T14:13:52.445Z,10.90
2019-03-27T14:16:20.418Z,8.40
2019-03-27T14:18:49.075Z,9.97
2019-03-27T14:21:17.343Z,11.13
2019-03-27T14:23:45.364Z,9.47
2019-03-27T14:26:13.350Z,11.60
2019-03-27T14:28:41.638Z,10.17
2019-03-27T14:31:09.675Z,10.87
2019-03-27T14:33:37.736Z,11.27
2019-03-27T14:36:05.853Z,11.30
2019-03-27T14:38:34.074Z,11.10
2019-03-27T14:41:02.152Z,11.10
2019-03-27T14:43:30.806Z,10.43
2019-03-27T14:45:59.862Z,11.10
2019-03-27T14:48:27.904Z,12.17
2019-03-27T14:50:56.353Z,12.07
2019-03-27T14:53:24.329Z,12.27
2019-03-27T14:55:52.298Z,10.90
2019-03-27T14:58:20.810Z,12.33
2019-03-27T15:00:48.763Z,12.90
2019-03-27T15:03:16.813Z,11.37
2019-03-27T15:05:45.028Z,11.57
2019-03-27T15:08:12.987Z,10.00
2019-03-27T15:10:40.952Z,10.17
2019-03-27T15:13:10.870Z,10.83
2019-03-27T15:15:38.810Z,10.93
2019-03-27T15:18:06.887Z,9.40
2019-03-27T15:20:35.438Z,10.40
2019-03-27T15:23:03.479Z,11.03
2019-03-27T15:25:31.517Z,11.50
2019-03-27T15:27:59.659Z,10.23
2019-03-27T15:30:28.915Z,8.87
2019-03-27T15:32:56.969Z,9.77
2019-03-27T15:35:25.225Z,9.77
2019-03-27T15:37:53.165Z,10.27
2019-03-27T15:40:37.244Z,10.67
2019-03-27T15:43:05.426Z,10.10
2019-03-27T15:45:33.675Z,9.97
2019-03-27T15:48:01.659Z,10.07
2019-03-27T15:50:29.714Z,10.50
2019-03-27T15:52:58.299Z,11.17
2019-03-27T15:55:26.362Z,9.50
2019-03-27T15:57:54.419Z,9.27
2019-03-27T16:00:22.652Z,9.20
2019-03-27T16:02:50.873Z,10.50
2019-03-27T16:05:18.813Z,9.93
2019-03-27T16:07:46.784Z,10.60
2019-03-27T16:10:18.191Z,8.63
2019-03-27T16:12:45.138Z,12.63
2019-03-27T16:15:13.381Z,12.53
2019-03-27T16:17:41.376Z,11.37
2019-03-27T16:20:09.546Z,9.90
2019-03-27T16:22:50.034Z,9.43
2019-03-27T16:25:07.864Z,10.90
2019-03-27T16:27:35.830Z,9.63
2019-03-27T16:30:04.173Z,9.10
2019-03-27T16:32:32.467Z,9.30
2019-03-27T16:35:00.518Z,8.53
2019-03-27T16:37:28.562Z,7.27
2019-03-27T16:39:56.541Z,9.50
2019-03-27T16:42:24.986Z,8.87
2019-03-27T16:44:54.048Z,10.70
2019-03-27T16:47:22.141Z,9.60
2019-03-27T16:49:50.188Z,10.60
2019-03-27T16:52:18.237Z,10.30
2019-03-27T16:54:46.234Z,9.37
2019-03-27T16:57:14.282Z,8.90
2019-03-27T16:59:42.240Z,8.13
2019-03-27T17:02:10.226Z,7.10
2019-03-27T17:04:38.179Z,6.40
2019-03-27T17:07:06.228Z,6.00
2019-03-27T17:09:36.168Z,7.50
2019-03-27T17:12:04.121Z,7.50
2019-03-27T17:14:32.080Z,7.60
2019-03-27T17:17:00.171Z,6.90
2019-03-27T17:19:28.208Z,6.10
2019-03-27T17:21:56.152Z,5.50
2019-03-27T17:24:24.186Z,5.40
2019-03-27T17:26:52.247Z,6.50
2019-03-27T17:29:20.297Z,6.77
2019-03-27T17:31:48.273Z,9.40
2019-03-27T17:34:16.256Z,7.13
2019-03-27T17:36:44.225Z,7.43
2019-03-27T17:39:12.199Z,6.00
2019-03-27T17:41:40.360Z,7.90
2019-03-27T17:44:08.494Z,6.97
2019-03-27T17:46:36.701Z,6.53
2019-03-27T17:49:04.747Z,7.40
2019-03-27T17:51:32.959Z,6.67
2019-03-27T17:54:01.432Z,6.30
2019-03-27T17:56:29.426Z,9.97
2019-03-27T17:58:57.390Z,9.30
2019-03-27T18:01:25.402Z,9.17
2019-03-27T18:03:53.370Z,12.70
2019-03-27T18:06:21.326Z,13.10
2019-03-27T18:08:49.333Z,10.73
2019-03-27T18:11:17.301Z,9.67
2019-03-27T18:13:45.257Z,9.40
2019-03-27T18:16:13.344Z,10.77
2019-03-27T18:18:41.288Z,10.10
2019-03-27T18:21:09.331Z,10.30
2019-03-27T18:23:45.720Z,23.10
2019-03-27T18:26:07.197Z,50.57
2019-03-27T18:28:35.249Z,44.63
2019-03-27T18:31:03.603Z,42.33
2019-03-27T18:33:34.135Z,25.80
2019-03-27T18:36:01.425Z,33.53
2019-03-27T18:38:29.408Z,36.50
2019-03-27T18:40:57.483Z,28.17
2019-03-27T18:43:25.656Z,23.93
2019-03-27T18:45:53.917Z,25.97
2019-03-27T18:48:21.903Z,17.77
2019-03-27T18:50:49.851Z,9.80
2019-03-27T18:53:18.184Z,7.07
2019-03-27T18:55:46.259Z,5.83
2019-03-27T18:58:14.316Z,5.30
2019-03-27T19:00:42.334Z,6.40
2019-03-27T19:03:11.397Z,5.53
2019-03-27T19:05:39.328Z,5.90
2019-03-27T19:08:07.697Z,5.43
2019-03-27T19:10:35.735Z,6.40
2019-03-27T19:13:03.798Z,6.47
2019-03-27T19:15:31.964Z,6.87
2019-03-27T19:17:59.907Z,6.60
2019-03-27T19:20:28.070Z,7.00
2019-03-27T19:22:56.179Z,7.03
2019-03-27T19:25:24.124Z,7.97
2019-03-27T19:27:52.171Z,8.20
2019-03-27T19:30:20.257Z,7.87
2019-03-27T19:32:48.195Z,8.00
2019-03-27T19:35:16.140Z,8.30
2019-03-27T19:37:44.132Z,9.17
2019-03-27T19:40:12.041Z,9.23
2019-03-27T19:42:40.298Z,9.50
2019-03-27T19:45:08.561Z,8.37
2019-03-27T19:47:36.533Z,11.43
2019-03-27T19:50:05.581Z,10.13
2019-03-27T19:52:33.525Z,10.63
2019-03-27T19:55:01.472Z,10.47
2019-03-27T19:57:29.527Z,9.50
2019-03-27T19:59:57.736Z,7.83
2019-03-27T20:02:25.777Z,7.10
2019-03-27T20:04:53.829Z,7.33
2019-03-27T20:07:35.314Z,6.33
2019-03-27T20:09:53.619Z,7.43
2019-03-27T20:12:21.572Z,10.30
2019-03-27T20:14:49.576Z,9.57
2019-03-27T20:17:17.527Z,9.97
2019-03-27T20:19:45.659Z,9.60
2019-03-27T20:22:13.794Z,10.90
2019-03-27T20:24:41.733Z,10.00
2019-03-27T20:27:09.791Z,11.57
2019-03-27T20:29:38.025Z,10.10
2019-03-27T20:32:06.076Z,8.70
2019-03-27T20:34:35.831Z,8.43
2019-03-27T20:37:05.854Z,6.13
2019-03-27T20:39:34.983Z,6.80
2019-03-27T20:42:03.152Z,7.47
2019-03-27T20:44:31.495Z,9.50
2019-03-27T20:47:00.107Z,9.20
2019-03-27T20:49:28.059Z,10.10
2019-03-27T20:51:56.235Z,12.87
2019-03-27T20:54:24.192Z,12.40
2019-03-27T20:56:53.934Z,10.03
2019-03-27T20:59:21.936Z,9.00
2019-03-27T21:01:49.906Z,10.13
2019-03-27T21:04:17.851Z,7.17
2019-03-27T21:06:45.837Z,7.90
2019-03-27T21:09:13.874Z,9.50
2019-03-27T21:11:41.925Z,10.50
2019-03-27T21:14:10.055Z,11.10
2019-03-27T21:16:38.000Z,9.50
2019-03-27T21:19:06.045Z,8.70
2019-03-27T21:21:35.938Z,10.40
2019-03-27T21:24:03.858Z,9.73
2019-03-27T21:26:31.899Z,10.23
2019-03-27T21:28:59.992Z,9.07
2019-03-27T21:31:28.035Z,10.20
2019-03-27T21:33:57.779Z,11.23
2019-03-27T21:36:25.867Z,9.90
2019-03-27T21:38:55.027Z,11.07
2019-03-27T21:41:22.962Z,8.97
2019-03-27T21:43:51.124Z,9.40
2019-03-27T21:46:19.307Z,12.13
2019-03-27T21:48:47.343Z,9.40
2019-03-27T21:51:15.328Z,9.87
2019-03-27T21:53:43.270Z,8.80
2019-03-27T21:56:11.215Z,8.47
2019-03-27T21:58:39.419Z,7.10
2019-03-27T22:01:07.451Z,7.87
2019-03-27T22:03:35.492Z,8.50
2019-03-27T22:06:04.093Z,6.83
2019-03-27T22:08:32.016Z,6.47
2019-03-27T22:10:59.964Z,7.80
2019-03-27T22:13:28.055Z,8.43
2019-03-27T22:15:55.992Z,8.10
2019-03-27T22:18:23.941Z,7.30
2019-03-27T22:20:52.000Z,9.60
2019-03-27T22:23:19.954Z,10.77
2019-03-27T22:25:49.699Z,10.07
2019-03-27T22:28:17.676Z,9.43
2019-03-27T22:30:45.619Z,10.57
2019-03-27T22:33:13.559Z,10.43
2019-03-27T22:35:41.787Z,11.50
2019-03-27T22:38:09.732Z,10.47
2019-03-27T22:40:37.777Z,10.50
2019-03-27T22:43:05.771Z,9.80
2019-03-27T22:45:34.008Z,8.30
2019-03-27T22:48:03.061Z,9.03
2019-03-27T22:50:31.143Z,8.73
2019-03-27T22:52:59.096Z,9.13
2019-03-27T22:55:27.137Z,9.93
2019-03-27T22:57:55.296Z,10.03
2019-03-27T23:00:31.532Z,9.67
2019-03-27T23:03:00.125Z,9.43
2019-03-27T23:05:30.189Z,10.50
2019-03-27T23:07:57.910Z,8.90
2019-03-27T23:10:25.999Z,9.10
2019-03-27T23:12:55.760Z,7.10
2019-03-27T23:15:23.704Z,9.10
2019-03-27T23:17:51.720Z,9.80
2019-03-27T23:20:19.659Z,8.43
2019-03-27T23:22:47.599Z,7.93
2019-03-27T23:25:15.556Z,10.47
2019-03-27T23:27:43.600Z,10.10
2019-03-27T23:30:11.536Z,11.50
2019-03-27T23:32:39.528Z,11.53
2019-03-27T23:35:07.666Z,7.63
2019-03-27T23:37:35.995Z,9.40
2019-03-27T23:40:05.500Z,8.53
2019-03-27T23:42:34.117Z,12.97
2019-03-27T23:45:02.671Z,10.90
2019-03-27T23:47:30.887Z,10.17
2019-03-27T23:49:58.840Z,12.17
2019-03-27T23:52:28.572Z,12.10
2019-03-27T23:54:57.479Z,12.13
2019-03-27T23:57:25.517Z,9.00
2019-03-27T23:59:53.463Z,10.40
